Time;durP1;ratioP1;P1;durP2;ratioP2;P2;SDS_P1;SDS_P2;PMS_P1;PMS_P2;Temp;Humidity;BMP_temperature;BMP_pressure;BME280_temperature;BME280_humidity;BME280_pressure;Samples;Min_cycle;Max_cycle;Signal;HPM_P1;HPM_P2
2022/09/17 00:01:52;;;;;;;;;2.67;2.33;;;;;15.07;49.85;101470.66;5020105;28;45544;-66
2022/09/17 00:04:17;;;;;;;;;5.33;4.33;;;;;15.01;50.00;101473.91;5035058;28;45467;-68
2022/09/17 00:06:42;;;;;;;;;1.00;1.00;;;;;14.96;49.96;101485.09;5020285;28;45294;-69
2022/09/17 00:09:08;;;;;;;;;1.67;1.67;;;;;14.77;49.99;101445.97;5019652;28;46320;-68
2022/09/17 00:11:36;;;;;;;;;0.67;0.67;;;;;14.49;49.93;101393.53;5034964;28;45285;-68
2022/09/17 00:14:04;;;;;;;;;0.50;0.50;;;;;14.95;50.13;101479.91;5019886;28;45312;-69
2022/09/17 00:16:39;;;;;;;;;2.67;1.00;;;;;14.99;50.08;101478.59;5019914;28;45486;-68
2022/09/17 00:19:07;;;;;;;;;2.00;2.00;;;;;15.01;50.14;101479.28;5019053;28;45557;-68
2022/09/17 00:21:32;;;;;;;;;1.00;1.00;;;;;15.03;49.75;101474.63;5018237;28;45361;-68
2022/09/17 00:24:02;;;;;;;;;2.00;2.00;;;;;15.06;50.03;101480.53;5018019;28;45519;-66
2022/09/17 00:26:28;;;;;;;;;1.00;1.00;;;;;14.90;49.87;101450.94;5019784;28;45359;-68
2022/09/17 00:28:55;;;;;;;;;5.00;5.00;;;;;14.99;50.14;101473.25;5019190;28;45813;-68
2022/09/17 00:31:22;;;;;;;;;2.00;2.00;;;;;15.06;50.02;101480.53;5017815;28;45474;-67
2022/09/17 00:33:48;;;;;;;;;4.00;1.33;;;;;14.97;50.38;101480.59;5018165;28;45297;-68
2022/09/17 00:36:14;;;;;;;;;0.67;0.67;;;;;14.83;50.51;101472.13;5019491;28;45413;-67
2022/09/17 00:38:39;;;;;;;;;7.33;6.33;;;;;14.94;50.17;101475.56;5019010;28;45937;-68
2022/09/17 00:41:06;;;;;;;;;2.00;1.00;;;;;14.76;50.56;101460.34;5019164;28;45273;-67
2022/09/17 00:44:08;;;;;;;;;4.00;4.00;;;;;14.87;50.56;101480.69;5017788;28;45608;-68
2022/09/17 00:46:43;;;;;;;;;5.33;2.67;;;;;14.95;50.54;101487.94;4998680;28;45394;-67
2022/09/17 00:49:25;;;;;;;;;0.67;0.67;;;;;14.89;51.00;101487.56;5018489;28;46685;-68
2022/09/17 00:52:14;;;;;;;;;1.00;1.00;;;;;14.82;50.81;101466.94;4998785;28;45443;-68
2022/09/17 00:54:51;;;;;;;;;2.67;1.33;;;;;14.95;50.93;101478.06;4998878;28;45345;-68
2022/09/17 00:57:17;;;;;;;;;3.33;2.00;;;;;14.90;50.93;101475.03;4999457;28;45360;-67
2022/09/17 00:59:42;;;;;;;;;1.00;1.00;;;;;14.82;50.91;101481.16;4999069;28;46717;-68
2022/09/17 01:02:08;;;;;;;;;2.67;0.00;;;;;14.81;50.97;101478.59;5030807;28;47056;-68
2022/09/17 01:04:33;;;;;;;;;2.00;2.00;;;;;14.85;51.04;101482.69;4999113;28;45174;-68
2022/09/17 01:07:10;;;;;;;;;0.67;0.67;;;;;14.83;51.00;101485.50;4999302;28;45130;-67
2022/09/17 01:09:42;;;;;;;;;3.00;0.67;;;;;14.85;50.96;101477.31;4998883;28;45888;-66
2022/09/17 01:12:14;;;;;;;;;1.67;1.67;;;;;14.87;50.78;101480.69;4998789;28;45334;-68
2022/09/17 01:15:05;;;;;;;;;1.00;1.00;;;;;14.83;50.74;101474.81;4998933;28;45298;-68
2022/09/17 01:17:58;;;;;;;;;2.33;2.33;;;;;14.52;50.74;101436.03;4999072;28;46516;-66
2022/09/17 01:20:54;;;;;;;;;3.67;1.67;;;;;14.78;51.07;101487.78;5010721;28;45656;-67
2022/09/17 01:23:46;;;;;;;;;1.33;1.33;;;;;14.73;50.97;101495.44;5018362;28;45405;-67
2022/09/17 01:26:48;;;;;;;;;2.67;2.00;;;;;14.79;50.91;101488.63;5018752;28;45268;-67
2022/09/17 01:29:50;;;;;;;;;1.33;1.33;;;;;14.19;51.12;101389.34;5018715;28;45375;-67
2022/09/17 01:32:25;;;;;;;;;2.00;0.67;;;;;14.70;51.31;101501.09;5018092;28;45956;-66
2022/09/17 01:35:00;;;;;;;;;1.67;0.67;;;;;14.66;51.50;101493.53;5018342;28;45301;-66
2022/09/17 01:37:54;;;;;;;;;1.67;1.00;;;;;14.68;51.53;101492.38;5017263;28;45329;-66
2022/09/17 01:40:32;;;;;;;;;0.00;0.00;;;;;14.58;51.81;101489.78;5017329;28;46210;-67
2022/09/17 01:43:03;;;;;;;;;1.67;1.67;;;;;14.54;51.83;101492.91;5018070;28;46801;-66
2022/09/17 01:45:40;;;;;;;;;1.67;1.67;;;;;14.63;51.66;101509.91;5017826;28;45218;-67
2022/09/17 01:48:15;;;;;;;;;1.33;1.33;;;;;14.57;51.53;101503.31;5018296;28;45476;-66
2022/09/17 01:50:51;;;;;;;;;3.67;1.00;;;;;14.59;51.74;101501.31;5018316;28;45360;-66
2022/09/17 01:53:22;;;;;;;;;0.67;0.67;;;;;14.59;51.47;101509.34;5018101;28;46544;-67
2022/09/17 01:55:52;;;;;;;;;1.67;0.67;;;;;14.57;51.46;101500.63;5016422;28;46646;-66
2022/09/17 01:58:49;;;;;;;;;2.67;1.00;;;;;14.64;51.55;101512.44;5017752;28;45490;-67
2022/09/17 02:01:19;;;;;;;;;1.67;1.00;;;;;14.59;51.68;101514.69;5018122;28;45490;-68
2022/09/17 02:04:16;;;;;;;;;1.33;1.33;;;;;14.54;51.89;101511.63;5017484;28;47917;-69
2022/09/17 02:06:49;;;;;;;;;1.33;1.00;;;;;14.51;51.99;101514.63;5017744;28;45348;-67
2022/09/17 02:09:21;;;;;;;;;1.00;1.00;;;;;14.49;51.74;101514.78;5017882;28;45396;-67
2022/09/17 02:11:54;;;;;;;;;1.00;0.67;;;;;14.40;52.09;101514.78;5018195;28;45327;-68
2022/09/17 02:14:26;;;;;;;;;1.00;1.00;;;;;14.38;52.06;101519.44;5017610;28;46643;-66
2022/09/17 02:16:59;;;;;;;;;1.67;1.67;;;;;14.39;52.09;101513.09;5016975;28;46144;-66
2022/09/17 02:19:32;;;;;;;;;1.00;0.67;;;;;14.40;51.77;101514.78;5017521;28;45253;-66
2022/09/17 02:22:18;;;;;;;;;2.00;1.00;;;;;14.31;52.29;101522.72;5017954;28;45476;-67
2022/09/17 02:24:53;;;;;;;;;1.67;1.67;;;;;14.28;52.06;101523.03;5017294;28;46234;-67
2022/09/17 02:27:22;;;;;;;;;0.67;0.67;;;;;14.25;52.20;101507.28;5017527;28;45389;-67
2022/09/17 02:29:48;;;;;;;;;0.67;0.67;;;;;14.27;52.30;101516.00;5016403;28;45349;-67
2022/09/17 02:32:13;;;;;;;;;2.00;0.67;;;;;14.15;52.41;101485.09;5017367;28;48380;-67
2022/09/17 02:34:39;;;;;;;;;0.33;0.33;;;;;13.74;52.15;101416.06;5017535;28;45743;-67
2022/09/17 02:37:05;;;;;;;;;0.67;0.67;;;;;14.32;51.87;101516.38;5017373;28;45357;-66
2022/09/17 02:39:31;;;;;;;;;1.00;1.00;;;;;14.30;51.83;101513.03;5017463;28;45305;-66
2022/09/17 02:42:14;;;;;;;;;0.67;0.67;;;;;14.25;52.10;101507.28;5017629;28;45181;-67
2022/09/17 02:44:58;;;;;;;;;1.67;0.67;;;;;14.22;52.17;101502.25;5015839;28;48928;-66
2022/09/17 02:47:32;;;;;;;;;1.67;1.67;;;;;14.12;52.58;101501.44;5016817;28;45521;-66
2022/09/17 02:50:05;;;;;;;;;0.67;0.67;;;;;14.09;52.52;101500.91;5016015;28;45408;-67
2022/09/17 02:52:49;;;;;;;;;1.33;1.33;;;;;14.06;52.79;101506.53;5016132;28;45530;-67
2022/09/17 02:55:26;;;;;;;;;1.67;0.67;;;;;14.06;52.17;101496.69;5015449;28;47866;-67
2022/09/17 02:57:57;;;;;;;;;0.67;0.67;;;;;14.07;52.38;101509.06;5016977;28;45369;-66
2022/09/17 03:00:23;;;;;;;;;1.67;1.00;;;;;14.00;52.70;101502.59;5017020;28;47382;-67
2022/09/17 03:03:01;;;;;;;;;3.00;1.67;;;;;13.99;52.74;101506.28;5017262;28;45573;-68
2022/09/17 03:05:28;;;;;;;;;1.33;1.33;;;;;13.97;52.84;101489.53;5017006;28;45519;-68
2022/09/17 03:07:55;;;;;;;;;0.67;0.67;;;;;13.52;52.62;101420.81;5016293;28;45460;-68
2022/09/17 03:10:21;;;;;;;;;1.67;0.67;;;;;14.05;52.65;101516.41;5016759;28;45447;-67
2022/09/17 03:12:47;;;;;;;;;0.67;0.67;;;;;13.98;52.79;101512.59;5017086;28;45448;-67
2022/09/17 03:15:12;;;;;;;;;1.67;1.67;;;;;13.60;52.92;101455.66;5016645;28;45647;-67
2022/09/17 03:17:38;;;;;;;;;0.67;0.00;;;;;13.99;52.67;101512.47;5016529;28;45240;-66
2022/09/17 03:20:04;;;;;;;;;0.67;0.67;;;;;13.74;52.65;101480.22;5016775;28;45222;-66
2022/09/17 03:22:30;;;;;;;;;1.67;1.00;;;;;13.86;52.73;101505.78;5017189;28;45214;-66
2022/09/17 03:24:55;;;;;;;;;1.00;1.00;;;;;13.83;52.88;101508.75;5016493;28;45584;-66
2022/09/17 03:27:20;;;;;;;;;1.67;1.67;;;;;13.72;53.21;101492.88;5016671;28;46809;-67
2022/09/17 03:29:46;;;;;;;;;1.67;1.00;;;;;13.84;53.22;101508.59;5016831;28;45875;-67
2022/09/17 03:32:11;;;;;;;;;0.67;0.67;;;;;13.76;53.02;101510.31;5016381;28;54591;-67
2022/09/17 03:34:36;;;;;;;;;1.00;1.00;;;;;13.85;52.98;101514.78;5015048;28;48365;-68
2022/09/17 03:37:02;;;;;;;;;2.33;1.33;;;;;13.88;52.92;101511.81;5015889;28;45515;-66
2022/09/17 03:39:28;;;;;;;;;0.67;0.67;;;;;13.82;53.17;101504.41;5031842;28;45329;-68
2022/09/17 03:41:53;;;;;;;;;1.33;0.00;;;;;13.90;52.85;101517.88;5015416;28;45344;-66
2022/09/17 03:44:20;;;;;;;;;1.67;1.67;;;;;13.85;53.37;101512.13;5031522;28;46319;-69
2022/09/17 03:46:45;;;;;;;;;1.67;1.67;;;;;13.77;53.59;101515.50;5016455;28;45306;-66
2022/09/17 03:49:11;;;;;;;;;2.00;2.00;;;;;13.16;53.61;101422.44;5016559;28;45467;-66
2022/09/17 03:51:36;;;;;;;;;2.00;1.67;;;;;13.37;53.21;101463.16;5016744;28;45396;-66
2022/09/17 03:54:02;;;;;;;;;1.00;1.00;;;;;13.73;53.45;101530.16;5015429;28;59479;-66
2022/09/17 03:56:27;;;;;;;;;1.33;1.33;;;;;13.71;53.91;101518.78;5016514;28;45474;-66
2022/09/17 03:58:58;;;;;;;;;2.67;1.33;;;;;13.70;53.67;101519.75;5016003;28;45213;-66
2022/09/17 04:01:23;;;;;;;;;1.00;1.00;;;;;13.55;53.19;101508.69;5016370;28;45526;-66
2022/09/17 04:03:48;;;;;;;;;0.67;0.67;;;;;13.25;53.71;101439.47;5015803;28;46658;-67
2022/09/17 04:06:14;;;;;;;;;0.67;0.67;;;;;13.22;53.15;101455.78;5016071;28;45308;-67
2022/09/17 04:08:39;;;;;;;;;1.00;1.00;;;;;13.56;53.79;101499.69;5015110;28;51287;-67
2022/09/17 04:11:06;;;;;;;;;1.33;1.33;;;;;13.02;53.58;101401.56;5016430;28;45532;-66
2022/09/17 04:13:32;;;;;;;;;2.33;1.33;;;;;13.65;53.58;101516.69;5015801;28;46164;-66
2022/09/17 04:15:57;;;;;;;;;3.33;1.67;;;;;13.75;53.23;101530.00;5014669;28;45295;-67
2022/09/17 04:18:22;;;;;;;;;0.00;0.00;;;;;13.77;53.14;101536.03;5014495;28;45301;-67
2022/09/17 04:20:48;;;;;;;;;2.00;1.00;;;;;13.68;53.35;101527.06;5018357;28;55922;-67
2022/09/17 04:23:13;;;;;;;;;4.33;3.00;;;;;13.75;53.22;101528.16;5019328;28;45613;-67
2022/09/17 04:25:38;;;;;;;;;0.67;0.00;;;;;13.76;53.34;101534.34;5018156;28;45463;-67
2022/09/17 04:28:04;;;;;;;;;0.67;0.67;;;;;13.76;53.24;101537.03;5019458;28;45408;-68
2022/09/17 04:30:29;;;;;;;;;0.67;0.67;;;;;13.79;53.27;101534.91;5019567;28;45432;-66
2022/09/17 04:32:55;;;;;;;;;1.33;1.33;;;;;13.77;53.55;101538.72;5018999;28;47438;-67
2022/09/17 04:35:20;;;;;;;;;0.67;0.67;;;;;13.07;53.54;101429.50;5019003;28;48734;-67
2022/09/17 04:37:56;;;;;;;;;1.00;1.00;;;;;13.79;53.84;101550.94;5019007;28;45297;-66
2022/09/17 04:40:22;;;;;;;;;5.00;2.33;;;;;13.72;53.99;101541.81;5019560;28;45344;-66
2022/09/17 04:42:51;;;;;;;;;1.67;1.33;;;;;13.74;54.06;101534.50;5018733;28;45313;-66
2022/09/17 04:45:16;;;;;;;;;1.00;1.00;;;;;13.79;54.01;101553.63;5017690;28;45285;-66
2022/09/17 04:47:42;;;;;;;;;1.00;1.00;;;;;13.18;54.45;101449.03;5018796;28;48793;-68
2022/09/17 04:50:08;;;;;;;;;3.00;1.67;;;;;13.85;53.94;101561.06;5019414;28;45189;-68
2022/09/17 04:52:33;;;;;;;;;7.33;4.33;;;;;13.28;53.77;101457.88;5019191;28;45992;-67
2022/09/17 04:54:59;;;;;;;;;1.67;1.00;;;;;13.86;54.33;101559.25;5018796;28;45268;-68
2022/09/17 04:57:25;;;;;;;;;1.33;1.00;;;;;13.84;54.05;101550.53;5018953;28;45487;-66
2022/09/17 04:59:50;;;;;;;;;2.33;1.33;;;;;13.80;54.31;101557.13;5019142;28;45236;-67
2022/09/17 05:02:16;;;;;;;;;1.00;1.00;;;;;13.83;54.36;101557.72;5018632;28;45799;-66
2022/09/17 05:04:41;;;;;;;;;2.67;2.67;;;;;13.79;54.33;101555.44;5018941;28;45428;-66
2022/09/17 05:07:06;;;;;;;;;2.33;1.33;;;;;13.82;54.21;101573.88;5018269;28;49210;-67
2022/09/17 05:09:32;;;;;;;;;1.00;1.00;;;;;13.80;54.17;101559.81;5018232;28;45340;-67
2022/09/17 05:11:57;;;;;;;;;1.00;1.00;;;;;13.64;54.16;101536.38;5018807;28;51209;-66
2022/09/17 05:14:22;;;;;;;;;2.00;2.00;;;;;13.77;54.15;101552.06;5017748;28;45244;-67
2022/09/17 05:16:48;;;;;;;;;3.00;1.00;;;;;13.82;54.25;101566.72;5016833;28;53130;-68
2022/09/17 05:19:13;;;;;;;;;5.00;5.00;;;;;13.73;54.34;101543.50;5018869;28;45250;-67
2022/09/17 05:21:38;;;;;;;;;4.33;0.67;;;;;13.79;54.55;101568.81;5033740;28;46171;-68
2022/09/17 05:24:04;;;;;;;;;0.00;0.00;;;;;13.56;54.55;101530.91;5018583;28;45890;-68
2022/09/17 05:26:29;;;;;;;;;1.00;1.00;;;;;13.65;54.35;101546.91;5018563;28;45317;-68
2022/09/17 05:28:54;;;;;;;;;1.67;1.67;;;;;13.65;54.63;101554.94;5018810;28;45524;-67
2022/09/17 05:31:20;;;;;;;;;3.00;2.00;;;;;13.72;54.60;101565.03;5017750;28;46586;-67
2022/09/17 05:33:45;;;;;;;;;1.67;1.67;;;;;13.79;54.66;101579.50;5018212;28;45531;-68
2022/09/17 05:36:10;;;;;;;;;1.00;1.00;;;;;13.80;54.39;101575.84;5017923;28;45505;-67
2022/09/17 05:38:36;;;;;;;;;1.00;1.00;;;;;13.76;54.29;101579.78;5018260;28;45471;-67
2022/09/17 05:41:05;;;;;;;;;3.00;2.00;;;;;13.78;54.74;101585.84;5017883;28;46896;-67
2022/09/17 05:43:31;;;;;;;;;2.00;1.33;;;;;13.77;54.28;101586.81;5017745;28;45506;-67
2022/09/17 05:46:01;;;;;;;;;2.67;1.33;;;;;13.75;54.66;101584.28;5018109;28;45254;-67
2022/09/17 05:48:27;;;;;;;;;1.00;1.00;;;;;13.76;54.69;101575.28;5018139;28;45353;-67
2022/09/17 05:50:54;;;;;;;;;1.67;1.67;;;;;13.70;54.62;101570.53;5017740;28;45570;-68
2022/09/17 05:53:19;;;;;;;;;1.33;1.33;;;;;13.73;54.34;101586.28;5017875;28;45213;-66
2022/09/17 05:55:44;;;;;;;;;2.00;2.00;;;;;13.70;54.94;101579.38;5017127;28;54892;-66
2022/09/17 05:58:12;;;;;;;;;3.00;2.00;;;;;13.62;54.73;101567.75;5018210;28;45302;-67
2022/09/17 06:00:38;;;;;;;;;1.33;1.33;;;;;13.60;54.51;101567.84;5017765;28;45708;-68
2022/09/17 06:03:04;;;;;;;;;2.33;1.00;;;;;13.68;54.26;101572.50;5017478;28;45435;-67
2022/09/17 06:05:29;;;;;;;;;2.00;2.00;;;;;13.81;54.34;101593.56;5022342;28;45495;-69
2022/09/17 06:07:54;;;;;;;;;3.67;1.67;;;;;13.79;53.66;101590.19;5021640;28;45301;-66
2022/09/17 06:10:20;;;;;;;;;0.67;0.67;;;;;13.83;54.01;101587.09;5017868;28;45753;-66
2022/09/17 06:12:45;;;;;;;;;1.67;1.67;;;;;13.77;53.98;101565.44;5016137;28;45469;-67
2022/09/17 06:15:13;;;;;;;;;2.00;1.33;;;;;13.95;53.86;101601.13;5017665;28;45420;-67
2022/09/17 06:17:39;;;;;;;;;0.33;0.00;;;;;13.93;53.20;101598.59;5018113;28;45238;-66
2022/09/17 06:20:05;;;;;;;;;2.67;2.00;;;;;13.94;53.41;101580.72;5017471;28;46978;-66
2022/09/17 06:22:30;;;;;;;;;3.00;3.00;;;;;14.05;53.36;101593.94;5019225;28;45539;-66
2022/09/17 06:24:56;;;;;;;;;3.33;2.33;;;;;14.06;52.68;101598.28;5037301;28;45539;-66
2022/09/17 06:27:21;;;;;;;;;1.33;0.67;;;;;13.38;52.34;101498.72;5037808;28;45319;-66
2022/09/17 06:29:47;;;;;;;;;1.00;1.00;;;;;13.89;52.54;101599.03;5036847;28;45655;-67
2022/09/17 06:32:14;;;;;;;;;1.00;1.00;;;;;13.92;52.35;101604.94;5037119;28;45475;-65
2022/09/17 06:34:40;;;;;;;;;4.33;3.00;;;;;13.87;52.63;101611.72;5037448;28;45479;-66
2022/09/17 06:37:05;;;;;;;;;1.00;1.00;;;;;13.81;52.51;101612.28;5044492;28;45483;-66
2022/09/17 06:39:30;;;;;;;;;2.67;0.00;;;;;13.83;52.37;101608.50;5026511;28;46111;-66
2022/09/17 06:41:56;;;;;;;;;2.67;2.00;;;;;13.90;52.56;101619.44;5037164;28;45454;-67
2022/09/17 06:44:21;;;;;;;;;1.00;1.00;;;;;13.89;52.32;101607.91;5036375;28;45317;-68
2022/09/17 06:46:49;;;;;;;;;0.67;0.67;;;;;13.94;52.34;101597.63;5037547;28;45320;-68
2022/09/17 06:49:16;;;;;;;;;1.00;1.00;;;;;14.14;52.33;101626.97;5036837;28;46727;-67
2022/09/17 06:51:41;;;;;;;;;3.67;1.67;;;;;14.35;51.88;101624.91;5033401;28;45357;-71
2022/09/17 06:54:07;;;;;;;;;1.67;1.00;;;;;14.98;50.83;101632.22;5026117;28;45509;-68
2022/09/17 06:56:33;;;;;;;;;3.00;0.67;;;;;15.78;48.51;101620.59;5015331;28;45423;-66
2022/09/17 06:58:59;;;;;;;;;2.67;1.33;;;;;16.64;46.07;101626.78;5016731;28;46555;-68
2022/09/17 07:01:24;;;;;;;;;1.00;1.00;;;;;17.32;44.42;101582.81;5016991;28;45490;-66
2022/09/17 07:03:49;;;;;;;;;2.00;1.00;;;;;18.20;42.58;101599.00;5020160;28;45881;-68
2022/09/17 07:06:15;;;;;;;;;1.33;1.00;;;;;18.67;41.24;101557.78;5017021;28;45400;-68
2022/09/17 07:08:40;;;;;;;;;1.33;1.33;;;;;19.75;39.73;101610.56;5015978;28;45285;-67
2022/09/17 07:11:06;;;;;;;;;1.67;1.67;;;;;20.31;38.43;101566.94;5014060;28;45325;-72
2022/09/17 07:13:33;;;;;;;;;1.67;1.67;;;;;21.11;37.20;101568.72;5015731;28;45288;-69
2022/09/17 07:16:01;;;;;;;;;2.67;2.67;;;;;21.91;35.68;101568.38;5016265;28;45555;-68
2022/09/17 07:18:26;;;;;;;;;5.33;3.33;;;;;22.72;34.63;101593.81;5016361;28;45813;-69
2022/09/17 07:20:53;;;;;;;;;4.00;4.00;;;;;23.37;33.75;101597.75;5016159;28;45424;-69
2022/09/17 07:23:19;;;;;;;;;3.00;2.33;;;;;23.55;32.50;101528.44;5016320;28;45424;-68
2022/09/17 07:25:50;;;;;;;;;3.00;2.00;;;;;24.76;31.79;101599.41;5015413;28;45389;-69
2022/09/17 07:28:16;;;;;;;;;1.00;1.00;;;;;24.82;30.23;101525.09;5014002;28;46438;-67
2022/09/17 07:30:41;;;;;;;;;2.67;2.33;;;;;25.71;29.40;101598.38;5015739;28;45411;-70
2022/09/17 07:33:06;;;;;;;;;2.33;2.00;;;;;26.19;28.51;101610.47;5016121;28;53713;-70
2022/09/17 07:35:32;;;;;;;;;2.00;1.00;;;;;26.44;28.32;101580.47;5016733;28;45607;-70
2022/09/17 07:37:57;;;;;;;;;2.00;1.00;;;;;26.94;26.95;101605.59;5014409;28;48506;-68
2022/09/17 07:40:22;;;;;;;;;1.33;1.33;;;;;27.14;26.23;101597.16;5016071;28;52076;-67
2022/09/17 07:42:48;;;;;;;;;2.67;2.00;;;;;26.80;25.45;101542.19;5015968;28;50019;-70
2022/09/17 07:45:13;;;;;;;;;1.33;0.33;;;;;27.42;24.78;101604.69;5016644;28;45342;-68
2022/09/17 07:47:40;;;;;;;;;2.67;2.00;;;;;27.60;24.50;101604.59;5016260;28;46614;-69
2022/09/17 07:50:06;;;;;;;;;1.00;1.00;;;;;27.78;24.10;101573.63;5016473;28;45334;-68
2022/09/17 07:52:31;;;;;;;;;2.00;0.33;;;;;28.17;23.62;101600.22;5016768;28;45478;-69
2022/09/17 07:54:57;;;;;;;;;1.00;0.00;;;;;28.34;23.32;101588.56;5017571;28;45584;-68
2022/09/17 07:57:22;;;;;;;;;0.67;0.67;;;;;28.72;24.01;101605.22;5020050;28;53712;-69
2022/09/17 07:59:47;;;;;;;;;1.33;1.33;;;;;29.02;22.88;101576.78;5039550;28;45419;-70
2022/09/17 08:02:13;;;;;;;;;9.00;7.67;;;;;29.66;23.39;101605.59;5019511;28;45471;-68
2022/09/17 08:04:41;;;;;;;;;4.00;2.00;;;;;29.93;22.40;101611.19;5018533;28;45589;-69
2022/09/17 08:07:10;;;;;;;;;2.33;2.33;;;;;30.16;22.33;101590.97;5019070;28;47639;-69
2022/09/17 08:09:35;;;;;;;;;1.33;1.00;;;;;30.24;21.33;101548.59;5019000;28;45454;-69
2022/09/17 08:12:01;;;;;;;;;1.67;1.33;;;;;30.60;21.16;101604.69;5019239;28;45533;-71
2022/09/17 08:14:26;;;;;;;;;2.00;2.00;;;;;30.40;20.98;101577.84;5018365;28;45595;-69
2022/09/17 08:16:51;;;;;;;;;2.00;1.00;;;;;30.42;21.12;101586.66;5019359;28;46449;-69
2022/09/17 08:19:17;;;;;;;;;3.00;3.00;;;;;30.39;21.86;101617.34;5013645;28;46807;-69
2022/09/17 08:21:43;;;;;;;;;2.00;2.00;;;;;30.35;21.76;101613.47;5009986;28;45544;-69
2022/09/17 08:24:08;;;;;;;;;1.33;1.33;;;;;30.36;21.58;101609.63;5019674;28;45271;-70
2022/09/17 08:26:34;;;;;;;;;3.00;3.00;;;;;29.95;22.29;101551.47;5019127;28;46490;-69
2022/09/17 08:29:00;;;;;;;;;3.33;3.33;;;;;30.19;21.70;101617.06;5019354;28;45480;-70
2022/09/17 08:31:27;;;;;;;;;1.00;1.00;;;;;29.86;21.96;101607.81;5014394;28;45348;-70
2022/09/17 08:33:52;;;;;;;;;1.00;1.00;;;;;29.68;22.04;101614.41;4999795;28;45319;-70
2022/09/17 08:36:21;;;;;;;;;1.00;1.00;;;;;29.34;22.60;101599.81;4999151;28;45540;-71
2022/09/17 08:38:50;;;;;;;;;2.00;2.00;;;;;28.98;22.48;101630.38;4999207;28;45492;-70
2022/09/17 08:41:25;;;;;;;;;1.25;0.25;;;;;28.72;22.71;101631.75;4999483;28;45383;-70
2022/09/17 08:44:03;;;;;;;;;3.67;3.00;;;;;28.56;22.65;101638.00;4999501;28;45170;-71
2022/09/17 08:47:01;;;;;;;;;1.00;1.00;;;;;28.21;23.35;101633.38;5009606;28;45630;-69
2022/09/17 08:49:32;;;;;;;;;1.67;1.67;;;;;28.10;23.67;101637.78;5003770;28;45844;-68
2022/09/17 08:52:04;;;;;;;;;2.00;2.00;;;;;28.07;23.51;101637.44;5038731;28;45323;-69
2022/09/17 08:54:45;;;;;;;;;2.00;0.33;;;;;27.92;23.57;101640.66;5038593;28;45300;-69
2022/09/17 08:57:32;;;;;;;;;1.67;1.67;;;;;27.76;23.87;101603.91;5038057;28;47042;-68
2022/09/17 09:00:04;;;;;;;;;1.00;1.00;;;;;28.21;23.84;101648.94;5035004;28;45516;-69
2022/09/17 09:03:10;;;;;;;;;2.67;1.00;;;;;27.96;23.59;101650.03;5021712;28;45478;-68
2022/09/17 09:05:45;;;;;;;;;1.33;1.00;;;;;27.88;23.85;101636.72;5018228;28;45577;-70
2022/09/17 09:08:32;;;;;;;;;1.00;1.00;;;;;27.24;24.03;101646.56;5007495;28;45837;-68
2022/09/17 09:11:01;;;;;;;;;1.00;1.00;;;;;27.23;24.95;101642.16;5004434;28;45797;-68
2022/09/17 09:13:35;;;;;;;;;2.67;1.00;;;;;27.57;24.18;101635.13;5030412;28;45546;-70
2022/09/17 09:16:19;;;;;;;;;2.00;2.00;;;;;27.79;23.89;101643.59;5018060;28;45148;-71
2022/09/17 09:18:51;;;;;;;;;1.00;1.00;;;;;27.77;23.46;101630.19;5018131;28;45638;-70
2022/09/17 09:21:27;;;;;;;;;2.33;1.33;;;;;28.64;23.22;101633.00;5018259;28;45446;-70
2022/09/17 09:24:22;;;;;;;;;4.67;2.33;;;;;30.02;22.16;101654.63;5017897;28;45510;-69
2022/09/17 09:27:13;;;;;;;;;0.67;0.67;;;;;31.03;20.25;101647.78;5016231;28;45386;-71
2022/09/17 09:30:00;;;;;;;;;1.33;0.67;;;;;32.21;19.58;101658.69;5016650;28;46472;-70
2022/09/17 09:32:36;;;;;;;;;5.00;3.00;;;;;32.84;18.02;101648.59;5022035;28;45517;-69
2022/09/17 09:35:15;;;;;;;;;8.33;4.67;;;;;33.21;17.84;101644.78;5018604;28;45320;-71
2022/09/17 09:37:45;;;;;;;;;3.00;1.67;;;;;33.24;17.26;101625.81;5016978;28;45578;-71
2022/09/17 09:40:33;;;;;;;;;3.67;2.67;;;;;33.14;17.17;101605.66;5021415;28;48329;-69
2022/09/17 09:43:03;;;;;;;;;5.00;2.00;;;;;32.60;17.10;101573.03;5037807;28;45516;-68
2022/09/17 09:46:01;;;;;;;;;4.00;4.00;;;;;33.00;17.65;101599.03;5023617;28;45451;-71
2022/09/17 09:48:56;;;;;;;;;3.33;3.33;;;;;33.74;16.73;101649.00;4998582;28;45460;-69
2022/09/17 09:51:52;;;;;;;;;6.67;3.67;;;;;33.35;17.15;101632.19;4998802;28;46381;-73
2022/09/17 09:54:18;;;;;;;;;0.00;0.00;;;;;32.64;17.73;101656.75;5009587;28;45532;-68
2022/09/17 09:56:54;;;;;;;;;3.00;1.67;;;;;31.49;18.60;101645.50;5017750;28;45391;-70
2022/09/17 09:59:20;;;;;;;;;0.00;0.00;;;;;30.05;19.38;101654.19;5018067;28;45637;-70
2022/09/17 10:01:45;;;;;;;;;1.00;0.00;;;;;28.87;20.90;101654.00;5017620;28;45725;-69
2022/09/17 10:04:23;;;;;;;;;2.00;1.33;;;;;27.58;22.22;101643.06;5017623;28;45284;-70
2022/09/17 10:07:07;;;;;;;;;4.00;4.00;;;;;26.97;23.43;101635.97;5017983;28;45336;-72
2022/09/17 10:09:35;;;;;;;;;1.00;1.00;;;;;26.36;24.39;101666.94;5029372;28;45424;-70
2022/09/17 10:12:21;;;;;;;;;1.00;1.00;;;;;25.53;25.59;101658.19;5017539;28;45841;-69
2022/09/17 10:14:46;;;;;;;;;1.67;1.00;;;;;24.93;25.65;101657.69;5016672;28;45455;-72
2022/09/17 10:17:19;;;;;;;;;1.33;1.33;;;;;24.57;26.11;101653.66;5017511;28;45510;-71
2022/09/17 10:20:00;;;;;;;;;5.67;4.33;;;;;24.10;26.30;101613.19;5017008;28;45491;-68
2022/09/17 10:22:34;;;;;;;;;1.67;1.00;;;;;24.24;26.43;101656.44;5015446;28;49047;-71
2022/09/17 10:25:01;;;;;;;;;1.00;1.00;;;;;23.66;27.24;101653.56;5016953;28;45541;-71
2022/09/17 10:27:28;;;;;;;;;3.00;1.67;;;;;23.01;28.06;101616.25;5016763;28;45321;-78
2022/09/17 10:30:15;;;;;;;;;5.33;4.33;;;;;22.97;28.59;101648.38;5017839;28;45444;-74
2022/09/17 10:32:40;;;;;;;;;4.00;2.67;;;;;22.65;28.80;101590.25;5016652;28;45649;-72
2022/09/17 10:35:06;;;;;;;;;1.67;1.67;;;;;22.98;29.13;101649.19;5020732;28;45433;-70
2022/09/17 10:37:41;;;;;;;;;2.33;1.00;;;;;22.63;28.84;101616.75;5020202;28;45486;-70
2022/09/17 10:40:19;;;;;;;;;5.33;2.00;;;;;22.32;29.56;101654.28;5019250;28;45270;-71
2022/09/17 10:42:49;;;;;;;;;2.67;1.67;;;;;22.27;29.53;101643.22;5017254;28;46482;-70
2022/09/17 10:45:29;;;;;;;;;4.33;4.00;;;;;22.04;29.78;101657.00;5016819;28;45378;-71
2022/09/17 10:47:57;;;;;;;;;5.00;4.00;;;;;21.85;29.29;101653.09;5017425;28;45463;-72
2022/09/17 10:50:31;;;;;;;;;2.00;1.00;;;;;21.49;30.00;101655.91;5017054;28;45355;-71
2022/09/17 10:53:01;;;;;;;;;4.00;4.00;;;;;21.37;30.33;101623.09;5017505;28;45945;-69
2022/09/17 10:55:38;;;;;;;;;4.00;3.00;;;;;21.60;30.29;101641.84;5016856;28;45353;-69
2022/09/17 10:58:06;;;;;;;;;4.00;4.00;;;;;21.56;30.60;101645.97;5017475;28;45348;-74
2022/09/17 11:01:09;;;;;;;;;4.00;3.00;;;;;21.28;30.29;101636.97;5017216;28;45423;-74
2022/09/17 11:04:00;;;;;;;;;0.00;0.00;;;;;21.14;30.15;101638.66;5026694;28;47992;-73
2022/09/17 11:06:48;;;;;;;;;4.00;3.00;;;;;20.90;30.10;101635.28;5036727;28;45463;-75
2022/09/17 11:09:38;;;;;;;;;6.67;6.67;;;;;20.75;30.50;101622.81;5033031;28;45453;-70
2022/09/17 11:12:32;;;;;;;;;2.67;2.67;;;;;20.28;30.33;101608.69;5019394;28;45537;-78
2022/09/17 11:15:12;;;;;;;;;3.00;3.00;;;;;19.72;30.75;101521.91;5035116;28;47789;-69
2022/09/17 11:17:38;;;;;;;;;6.00;3.33;;;;;20.37;31.18;101620.22;5036611;28;45486;-72
2022/09/17 11:20:07;;;;;;;;;2.67;2.67;;;;;20.39;31.43;101595.72;5037114;28;45228;-71
2022/09/17 11:22:44;;;;;;;;;1.00;1.00;;;;;20.57;31.22;101612.41;5037101;28;45231;-74
2022/09/17 11:25:35;;;;;;;;;2.00;2.00;;;;;20.57;31.31;101609.69;5034941;28;47796;-73
2022/09/17 11:28:36;;;;;;;;;2.67;2.33;;;;;20.55;31.59;101603.66;5036459;28;45263;-69
2022/09/17 11:31:29;;;;;;;;;2.33;1.67;;;;;20.51;31.61;101610.47;5029311;28;45419;-71
2022/09/17 11:33:57;;;;;;;;;2.00;2.00;;;;;20.55;30.08;101617.16;5032741;28;45351;-72
2022/09/17 11:36:29;;;;;;;;;2.33;2.33;;;;;20.60;29.73;101620.13;5000674;28;45624;-70
2022/09/17 11:39:00;;;;;;;;;10.33;6.33;;;;;20.46;29.78;101596.69;5007721;28;45270;-71
2022/09/17 11:41:36;;;;;;;;;7.67;6.33;;;;;20.38;30.19;101626.44;5020471;28;45462;-70
2022/09/17 11:44:21;;;;;;;;;1.00;1.00;;;;;19.89;29.73;101562.22;5020184;28;45313;-73